Time;durP1;ratioP1;P1;durP2;ratioP2;P2;SDS_P1;SDS_P2;PMS_P1;PMS_P2;Temp;Humidity;BMP_temperature;BMP_pressure;BME280_temperature;BME280_humidity;BME280_pressure;Samples;Min_cycle;Max_cycle;Signal;HPM_P1;HPM_P2
2022/03/28 00:01:01;;;;;;;0.10;0.10;;;5.70;1.00;226.50;231333.00;;;;5069577;28;20240;-71
2022/03/28 00:03:31;;;;;;;0.10;0.10;;;5.70;1.00;226.50;231333.00;;;;5070393;28;20214;-71
2022/03/28 00:05:59;;;;;;;0.03;0.03;;;5.70;1.00;226.50;231333.00;;;;5066666;28;20196;-70
2022/03/28 00:08:28;;;;;;;0.10;0.10;;;5.80;1.00;226.50;231333.00;;;;5068699;28;20270;-71
2022/03/28 00:10:57;;;;;;;0.05;0.05;;;5.80;1.00;226.50;231333.00;;;;5073762;28;20251;-71
2022/03/28 00:13:25;;;;;;;0.10;0.10;;;5.70;1.00;226.50;231333.00;;;;5075016;28;20221;-71
2022/03/28 00:15:54;;;;;;;0.10;0.10;;;5.70;1.00;226.50;231333.00;;;;5075195;28;20198;-71
2022/03/28 00:18:22;;;;;;;0.10;0.10;;;5.70;1.00;226.50;231333.00;;;;5074872;28;20239;-70
2022/03/28 00:20:53;;;;;;;0.00;0.00;;;5.70;1.00;226.50;231333.00;;;;5072853;28;20521;-72
2022/03/28 00:23:21;;;;;;;0.10;0.10;;;5.70;1.00;226.50;231333.00;;;;5072116;28;20267;-71
2022/03/28 00:25:50;;;;;;;0.10;0.10;;;5.80;1.00;226.50;231333.00;;;;5074195;28;20870;-71
2022/03/28 00:28:19;;;;;;;0.10;0.10;;;5.80;1.00;226.50;231333.00;;;;5073026;28;20190;-71
2022/03/28 00:30:47;;;;;;;0.10;0.10;;;5.70;1.00;226.50;231333.00;;;;5072257;28;20202;-72
2022/03/28 00:33:14;;;;;;;0.10;0.10;;;5.60;1.00;226.50;231333.00;;;;5074081;28;20247;-72
2022/03/28 00:35:43;;;;;;;0.10;0.10;;;5.60;1.00;226.50;231333.00;;;;5074635;28;20248;-71
2022/03/28 00:38:12;;;;;;;0.10;0.10;;;5.50;1.00;226.50;231333.00;;;;5074925;28;20671;-71
2022/03/28 00:40:40;;;;;;;0.10;0.10;;;5.50;1.00;226.50;231333.00;;;;5073704;28;20255;-72
2022/03/28 00:43:09;;;;;;;0.10;0.10;;;5.50;1.00;226.50;231333.00;;;;5074048;28;20225;-71
2022/03/28 00:45:42;;;;;;;0.08;0.08;;;5.50;1.00;226.50;231333.00;;;;5073743;28;20198;-71
2022/03/28 00:48:12;;;;;;;0.10;0.10;;;5.40;1.00;226.50;231333.00;;;;5074032;28;20193;-71
2022/03/28 00:50:42;;;;;;;0.10;0.10;;;5.50;1.00;226.50;231333.00;;;;5069319;28;20708;-70
2022/03/28 00:53:14;;;;;;;0.10;0.10;;;5.50;1.00;226.50;231333.00;;;;5071454;28;20272;-71
2022/03/28 00:55:43;;;;;;;0.10;0.10;;;5.30;1.00;226.50;231333.00;;;;5071775;28;20193;-71
2022/03/28 00:58:11;;;;;;;0.10;0.10;;;5.20;1.00;226.50;231333.00;;;;5070056;28;20692;-71
2022/03/28 01:00:39;;;;;;;0.10;0.10;;;5.20;9.60;226.50;231333.00;;;;5073339;28;20293;-72
2022/03/28 01:03:08;;;;;;;0.10;0.10;;;5.10;16.40;226.50;231333.00;;;;5072433;28;20226;-71
2022/03/28 01:05:37;;;;;;;0.10;0.10;;;5.10;47.00;226.50;231333.00;;;;5072198;28;20202;-71
2022/03/28 01:08:05;;;;;;;0.10;0.10;;;5.20;39.30;226.50;231333.00;;;;5074313;28;20190;-71
2022/03/28 01:10:34;;;;;;;0.10;0.10;;;5.20;5.90;226.50;231333.00;;;;5078318;28;20198;-71
2022/03/28 01:13:03;;;;;;;0.10;0.10;;;5.20;6.70;226.50;231333.00;;;;5076632;28;20279;-71
2022/03/28 01:15:31;;;;;;;0.10;0.10;;;5.20;3.90;226.50;231333.00;;;;5076381;28;20194;-71
2022/03/28 01:18:09;;;;;;;0.10;0.10;;;5.10;1.80;226.50;231333.00;;;;5077789;28;20189;-73
2022/03/28 01:20:39;;;;;;;0.10;0.10;;;5.00;30.40;226.50;231333.00;;;;5072402;28;20197;-72
2022/03/28 01:23:10;;;;;;;0.10;0.10;;;5.00;46.30;226.50;231333.00;;;;5074476;28;20218;-72
2022/03/28 01:25:38;;;;;;;0.10;0.10;;;5.00;28.70;226.50;231333.00;;;;5073760;28;20194;-73
2022/03/28 01:28:07;;;;;;;0.10;0.10;;;5.00;44.30;226.50;231333.00;;;;5073308;28;20186;-71
2022/03/28 01:30:35;;;;;;;0.10;0.10;;;4.90;35.70;226.50;231333.00;;;;5073138;28;20632;-72
2022/03/28 01:33:03;;;;;;;0.10;0.10;;;4.80;41.20;226.50;231333.00;;;;5073492;28;20504;-71
2022/03/28 01:35:34;;;;;;;0.10;0.10;;;4.70;99.90;226.50;231333.00;;;;5073617;28;20201;-71
2022/03/28 01:38:05;;;;;;;0.10;0.10;;;4.70;99.90;226.50;231333.00;;;;5070536;28;20668;-73
2022/03/28 01:40:39;;;;;;;0.10;0.10;;;4.70;99.90;226.50;231333.00;;;;5073261;28;20291;-72
2022/03/28 01:43:08;;;;;;;0.10;0.10;;;4.70;99.90;226.50;231333.00;;;;5073897;28;20710;-73
2022/03/28 01:45:36;;;;;;;0.10;0.10;;;4.50;99.90;226.50;231333.00;;;;5077209;28;20205;-72
2022/03/28 01:48:06;;;;;;;0.10;0.10;;;4.40;99.90;226.50;231333.00;;;;5086914;28;20193;-72
2022/03/28 01:50:34;;;;;;;0.10;0.10;;;4.50;99.90;226.50;231333.00;;;;5086862;28;20197;-73
2022/03/28 01:53:02;;;;;;;0.10;0.10;;;4.40;99.90;226.50;231333.00;;;;5078773;28;20212;-74
2022/03/28 01:55:31;;;;;;;0.10;0.10;;;4.40;99.90;226.50;231333.00;;;;5083011;28;20236;-72
2022/03/28 01:58:00;;;;;;;0.10;0.10;;;4.40;99.90;226.50;231333.00;;;;5077502;28;20242;-73
2022/03/28 02:00:31;;;;;;;0.10;0.10;;;4.60;99.90;226.50;231333.00;;;;5067146;28;20563;-73
2022/03/28 02:03:00;;;;;;;0.10;0.10;;;4.60;99.90;226.50;231333.00;;;;5066557;28;20233;-73
2022/03/28 02:05:29;;;;;;;0.10;0.10;;;4.60;99.90;226.50;231333.00;;;;5056044;28;20247;-72
2022/03/28 02:07:57;;;;;;;0.10;0.10;;;4.70;99.90;226.50;231333.00;;;;5073124;28;20609;-73
2022/03/28 02:10:25;;;;;;;0.10;0.10;;;4.70;99.90;226.50;231333.00;;;;5072851;28;20193;-74
2022/03/28 02:12:53;;;;;;;0.10;0.10;;;4.70;99.90;226.50;231333.00;;;;5073625;28;20206;-74
2022/03/28 02:15:23;;;;;;;0.10;0.10;;;4.60;99.90;226.50;231333.00;;;;5073580;28;20190;-74
2022/03/28 02:17:51;;;;;;;0.10;0.10;;;4.60;99.90;226.50;231333.00;;;;5070222;28;20197;-75
2022/03/28 02:20:20;;;;;;;0.10;0.10;;;4.50;99.90;226.50;231333.00;;;;5072353;28;20189;-72
2022/03/28 02:22:49;;;;;;;0.10;0.10;;;4.60;99.90;226.50;231333.00;;;;5070647;28;20703;-72
2022/03/28 02:25:17;;;;;;;0.10;0.10;;;4.60;99.90;226.50;231333.00;;;;5071351;28;20227;-72
2022/03/28 02:27:47;;;;;;;0.10;0.10;;;4.70;99.90;226.50;231333.00;;;;5071549;28;20660;-72
2022/03/28 02:30:16;;;;;;;0.10;0.10;;;4.50;99.90;226.50;231333.00;;;;5071692;28;20193;-72
2022/03/28 02:32:45;;;;;;;0.10;0.10;;;4.50;99.90;226.50;231333.00;;;;5070418;28;20225;-72
2022/03/28 02:35:14;;;;;;;0.10;0.10;;;4.30;99.90;226.50;231333.00;;;;5071195;28;20193;-72
2022/03/28 02:37:42;;;;;;;0.10;0.10;;;4.20;99.90;226.50;231333.00;;;;5068924;28;20193;-72
2022/03/28 02:40:13;;;;;;;0.10;0.10;;;4.10;99.90;226.50;231333.00;;;;5069429;28;20201;-72
2022/03/28 02:42:41;;;;;;;0.10;0.10;;;4.10;99.90;226.50;231333.00;;;;5064895;28;20675;-72
2022/03/28 02:45:10;;;;;;;0.10;0.10;;;4.00;99.90;226.50;231333.00;;;;5072236;28;20205;-73
2022/03/28 02:47:38;;;;;;;0.10;0.10;;;4.00;99.90;226.50;231333.00;;;;5072839;28;20201;-73
2022/03/28 02:50:09;;;;;;;0.10;0.10;;;3.90;99.90;226.50;231333.00;;;;5068334;28;20223;-72
2022/03/28 02:52:37;;;;;;;0.10;0.10;;;3.90;99.90;226.50;231333.00;;;;5069312;28;20222;-73
2022/03/28 02:55:07;;;;;;;0.10;0.10;;;3.90;99.90;226.50;231333.00;;;;5075451;28;20259;-73
2022/03/28 02:57:36;;;;;;;0.10;0.10;;;4.00;99.90;226.50;231333.00;;;;5067722;28;20205;-71
2022/03/28 03:00:10;;;;;;;0.10;0.10;;;4.00;99.90;226.50;231333.00;;;;5068421;28;20243;-72
2022/03/28 03:02:39;;;;;;;0.10;0.10;;;4.20;99.90;226.50;231333.00;;;;5069350;28;20222;-72
2022/03/28 03:05:11;;;;;;;0.10;0.10;;;4.20;99.90;226.50;231333.00;;;;5078044;28;20272;-72
2022/03/28 03:07:39;;;;;;;0.10;0.10;;;4.20;99.90;226.50;231333.00;;;;5075025;28;20272;-71
2022/03/28 03:10:09;;;;;;;0.15;0.15;;;4.20;99.90;226.50;231333.00;;;;5072975;28;20190;-71
2022/03/28 03:12:37;;;;;;;0.10;0.10;;;4.30;99.90;226.50;231333.00;;;;5072555;28;20218;-72
2022/03/28 03:15:06;;;;;;;0.10;0.10;;;4.20;99.90;226.50;231333.00;;;;5073817;28;20228;-72
2022/03/28 03:17:34;;;;;;;0.10;0.10;;;4.20;99.90;226.50;231333.00;;;;5066908;28;20206;-72
2022/03/28 03:20:02;;;;;;;0.10;0.10;;;4.10;99.90;226.50;231333.00;;;;5071909;28;20194;-73
2022/03/28 03:22:32;;;;;;;0.10;0.10;;;4.20;99.90;226.50;231333.00;;;;5071757;28;20218;-73
2022/03/28 03:25:00;;;;;;;0.10;0.10;;;4.10;99.90;226.50;231333.00;;;;5072187;28;20682;-72
2022/03/28 03:27:28;;;;;;;0.10;0.10;;;4.00;99.90;226.50;231333.00;;;;5071254;28;20193;-72
2022/03/28 03:29:56;;;;;;;0.10;0.10;;;3.80;99.90;226.50;231333.00;;;;5069797;28;20201;-72
2022/03/28 03:32:24;;;;;;;0.10;0.10;;;3.60;99.90;226.50;231333.00;;;;5071673;28;20213;-73
2022/03/28 03:34:52;;;;;;;0.10;0.10;;;3.70;99.90;226.50;231333.00;;;;5065139;28;20217;-72
2022/03/28 03:37:20;;;;;;;0.10;0.10;;;3.60;99.90;226.50;231333.00;;;;5071111;28;20194;-73
2022/03/28 03:39:50;;;;;;;0.10;0.10;;;3.50;99.90;226.50;231333.00;;;;5070680;28;20205;-73
2022/03/28 03:42:18;;;;;;;0.10;0.10;;;3.40;99.90;226.50;231333.00;;;;5072441;28;20638;-73
2022/03/28 03:44:46;;;;;;;0.10;0.10;;;3.40;99.90;226.50;231333.00;;;;5071576;28;20197;-73
2022/03/28 03:47:14;;;;;;;0.10;0.10;;;3.40;99.90;226.50;231333.00;;;;5074515;28;20912;-72
2022/03/28 03:49:42;;;;;;;0.10;0.10;;;3.50;99.90;226.50;231333.00;;;;5070622;28;20201;-72
2022/03/28 03:52:10;;;;;;;0.10;0.10;;;3.50;99.90;226.50;231333.00;;;;5070053;28;20606;-71
2022/03/28 03:54:38;;;;;;;0.10;0.10;;;3.60;99.90;226.50;231333.00;;;;5069075;28;20687;-72
2022/03/28 03:57:08;;;;;;;0.10;0.10;;;3.70;99.90;226.50;231333.00;;;;5070212;28;20197;-71
2022/03/28 03:59:36;;;;;;;0.10;0.10;;;3.60;99.90;226.50;231333.00;;;;5070015;28;20267;-72
2022/03/28 04:02:05;;;;;;;0.10;0.10;;;3.60;99.90;226.50;231333.00;;;;5066345;28;20254;-72
2022/03/28 04:04:33;;;;;;;0.10;0.10;;;3.50;99.90;226.50;231333.00;;;;5070076;28;20205;-72
2022/03/28 04:07:01;;;;;;;0.00;0.00;;;3.60;99.90;226.50;231333.00;;;;5065512;28;20271;-72
2022/03/28 04:09:29;;;;;;;0.10;0.10;;;3.60;99.90;226.50;231333.00;;;;5065551;28;20243;-71
2022/03/28 04:11:57;;;;;;;0.10;0.10;;;3.60;99.90;226.50;231333.00;;;;5067784;28;20209;-73
2022/03/28 04:14:26;;;;;;;0.10;0.10;;;3.50;99.90;226.50;231333.00;;;;5068162;28;20241;-72
2022/03/28 04:16:54;;;;;;;0.10;0.10;;;3.40;99.90;226.50;231333.00;;;;5071828;28;20194;-72
2022/03/28 04:19:22;;;;;;;0.10;0.10;;;3.30;99.90;226.50;231333.00;;;;5069355;28;20243;-73
2022/03/28 04:21:50;;;;;;;0.10;0.10;;;3.10;99.90;226.50;231333.00;;;;5068085;28;20252;-73
2022/03/28 04:24:18;;;;;;;0.10;0.10;;;3.10;99.90;226.50;231333.00;;;;5067821;28;20239;-72
2022/03/28 04:26:46;;;;;;;0.10;0.10;;;3.30;99.90;226.50;231333.00;;;;5072044;28;20663;-72
2022/03/28 04:29:14;;;;;;;0.10;0.10;;;3.50;99.90;226.50;231333.00;;;;5076252;28;20193;-72
2022/03/28 04:31:43;;;;;;;0.10;0.10;;;3.40;99.90;226.50;231333.00;;;;5076953;28;20861;-71
2022/03/28 04:34:11;;;;;;;0.10;0.10;;;3.40;99.90;226.50;231333.00;;;;5077611;28;20231;-72
2022/03/28 04:36:39;;;;;;;0.10;0.10;;;3.50;99.90;226.50;231333.00;;;;5074406;28;20198;-72
2022/03/28 04:39:08;;;;;;;0.10;0.10;;;3.50;99.90;226.50;231333.00;;;;5069404;28;20194;-72
2022/03/28 04:41:41;;;;;;;0.10;0.10;;;3.40;99.90;226.50;231333.00;;;;5074386;28;20658;-72
2022/03/28 04:44:09;;;;;;;0.10;0.10;;;3.30;99.90;226.50;231333.00;;;;5074536;28;20699;-72
2022/03/28 04:46:38;;;;;;;0.10;0.10;;;3.40;99.90;226.50;231333.00;;;;5070631;28;20206;-72
2022/03/28 04:49:10;;;;;;;0.10;0.10;;;3.40;99.90;226.50;231333.00;;;;5070627;28;20647;-72
2022/03/28 04:51:38;;;;;;;0.10;0.10;;;3.50;99.90;226.50;231333.00;;;;5066210;28;20210;-72
2022/03/28 04:54:06;;;;;;;0.10;0.10;;;3.40;99.90;226.50;231333.00;;;;5070620;28;20212;-72
2022/03/28 04:56:34;;;;;;;0.10;0.10;;;3.30;99.90;226.50;231333.00;;;;5073662;28;20202;-72
2022/03/28 04:59:03;;;;;;;0.10;0.10;;;3.30;99.90;226.50;231333.00;;;;5074357;28;20197;-72
2022/03/28 05:01:31;;;;;;;0.10;0.10;;;3.30;99.90;226.50;231333.00;;;;5072671;28;20218;-72
2022/03/28 05:03:59;;;;;;;0.10;0.10;;;3.40;99.90;226.50;231333.00;;;;5073687;28;20193;-72
2022/03/28 05:06:29;;;;;;;0.10;0.10;;;3.40;99.90;226.50;231333.00;;;;5075562;28;20205;-72
2022/03/28 05:08:57;;;;;;;0.10;0.10;;;3.40;99.90;226.50;231333.00;;;;5073768;28;20255;-72
2022/03/28 05:11:25;;;;;;;0.10;0.10;;;3.40;99.90;226.50;231333.00;;;;5074755;28;20185;-72
2022/03/28 05:13:53;;;;;;;0.10;0.10;;;3.30;99.90;226.50;231333.00;;;;5073230;28;20190;-73
2022/03/28 05:16:21;;;;;;;0.10;0.10;;;3.20;99.90;226.50;231333.00;;;;5072779;28;20222;-73
2022/03/28 05:18:49;;;;;;;0.10;0.10;;;3.20;99.90;226.50;231333.00;;;;5072650;28;20201;-72
2022/03/28 05:21:17;;;;;;;0.10;0.10;;;3.20;99.90;226.50;231333.00;;;;5073393;28;20190;-72
2022/03/28 05:23:46;;;;;;;0.10;0.10;;;3.10;99.90;226.50;231333.00;;;;5063122;28;20201;-72
2022/03/28 05:26:14;;;;;;;0.10;0.10;;;3.10;99.90;226.50;231333.00;;;;5068559;28;20683;-73
2022/03/28 05:28:42;;;;;;;0.10;0.10;;;3.30;99.90;226.50;231333.00;;;;5072374;28;20259;-72
2022/03/28 05:31:10;;;;;;;0.08;0.08;;;3.40;99.90;226.50;231333.00;;;;5071116;28;20185;-73
2022/03/28 05:33:38;;;;;;;0.10;0.10;;;3.50;99.90;226.50;231333.00;;;;5072077;28;20570;-72
2022/03/28 05:36:08;;;;;;;0.10;0.10;;;3.60;99.90;226.50;231333.00;;;;5072391;28;20225;-73
2022/03/28 05:38:36;;;;;;;0.10;0.10;;;3.50;99.90;226.50;231333.00;;;;5073650;28;20225;-73
2022/03/28 05:41:07;;;;;;;0.13;0.13;;;3.60;99.90;226.50;231333.00;;;;5072923;28;20190;-72
2022/03/28 05:43:36;;;;;;;0.20;0.20;;;3.70;99.90;226.50;231333.00;;;;5067579;28;20430;-72
2022/03/28 05:46:05;;;;;;;0.10;0.10;;;3.60;99.90;226.50;231333.00;;;;5073428;28;20569;-73
2022/03/28 05:48:33;;;;;;;0.10;0.10;;;3.50;99.90;226.50;231333.00;;;;5075670;28;20209;-72
2022/03/28 05:51:02;;;;;;;0.10;0.10;;;3.60;99.90;226.50;231333.00;;;;5073669;28;20720;-72
2022/03/28 05:53:30;;;;;;;0.10;0.10;;;3.60;99.90;226.50;231333.00;;;;5077079;28;20233;-72
2022/03/28 05:55:58;;;;;;;0.10;0.10;;;3.70;99.90;226.50;231333.00;;;;5076364;28;20768;-73
2022/03/28 05:58:29;;;;;;;0.10;0.10;;;3.80;99.90;226.50;231333.00;;;;5073243;28;20202;-73
2022/03/28 06:00:58;;;;;;;0.10;0.10;;;3.90;99.90;226.50;231333.00;;;;5067536;28;20197;-72
2022/03/28 06:03:26;;;;;;;0.10;0.10;;;3.90;99.90;226.50;231333.00;;;;5070819;28;20217;-73
2022/03/28 06:06:07;;;;;;;0.10;0.10;;;4.00;1.00;226.50;231333.00;;;;5069385;28;20280;-72
2022/03/28 06:08:35;;;;;;;0.10;0.10;;;4.10;1.00;226.50;231333.00;;;;5070063;28;20202;-73
2022/03/28 06:11:05;;;;;;;0.10;0.10;;;4.20;1.00;226.50;231333.00;;;;5071744;28;20194;-73
2022/03/28 06:13:35;;;;;;;0.10;0.10;;;4.30;1.00;226.50;231333.00;;;;5065370;28;20260;-72
2022/03/28 06:16:05;;;;;;;0.10;0.10;;;4.40;1.00;226.50;231333.00;;;;5070380;28;20217;-73
2022/03/28 06:18:33;;;;;;;0.00;0.00;;;4.60;1.00;226.50;231333.00;;;;5071788;28;20222;-72
2022/03/28 06:21:01;;;;;;;0.10;0.10;;;4.60;1.00;226.50;231333.00;;;;5072816;28;20233;-72
2022/03/28 06:23:29;;;;;;;0.10;0.10;;;4.80;1.00;226.50;231333.00;;;;5070209;28;20221;-73
2022/03/28 06:25:57;;;;;;;0.10;0.10;;;4.90;1.00;226.50;231333.00;;;;5072613;28;20194;-73
2022/03/28 06:28:25;;;;;;;0.10;0.10;;;5.00;1.00;226.50;231333.00;;;;5069706;28;20186;-74
2022/03/28 06:30:55;;;;;;;0.10;0.10;;;5.00;1.00;226.50;231333.00;;;;5070714;28;20610;-73
2022/03/28 06:33:23;;;;;;;0.08;0.08;;;5.20;1.00;226.50;231333.00;;;;5072465;28;20214;-73
2022/03/28 06:35:52;;;;;;;0.10;0.10;;;5.20;99.90;226.50;231333.00;;;;5071748;28;20210;-73
2022/03/28 06:38:20;;;;;;;0.10;0.10;;;5.30;1.00;226.50;231333.00;;;;5069761;28;20274;-73
2022/03/28 06:40:49;;;;;;;0.10;0.10;;;5.30;1.00;226.50;231333.00;;;;5072001;28;20201;-73
2022/03/28 06:43:17;;;;;;;0.10;0.10;;;5.50;1.00;226.50;231333.00;;;;5071109;28;20278;-73
2022/03/28 06:45:45;;;;;;;0.10;0.10;;;5.60;99.90;226.50;231333.00;;;;5071887;28;20628;-72
2022/03/28 06:48:15;;;;;;;0.00;0.00;;;5.70;99.90;226.50;231333.00;;;;5072367;28;20205;-72
2022/03/28 06:51:02;;;;;;;0.10;0.10;;;5.80;99.90;226.50;231333.00;;;;5070032;28;20194;-72
2022/03/28 06:53:30;;;;;;;0.10;0.10;;;5.90;99.90;226.50;231333.00;;;;5068562;28;20221;-72
2022/03/28 06:55:58;;;;;;;0.10;0.10;;;6.00;99.90;226.50;231333.00;;;;5071636;28;20274;-72
2022/03/28 06:58:27;;;;;;;0.10;0.10;;;6.10;99.90;226.50;231333.00;;;;5071290;28;20334;-72
2022/03/28 07:00:55;;;;;;;0.10;0.10;;;6.20;1.00;226.50;231333.00;;;;5066737;28;20205;-73
2022/03/28 07:03:25;;;;;;;0.10;0.10;;;6.30;1.00;226.50;231333.00;;;;5071041;28;20241;-72
2022/03/28 07:05:53;;;;;;;0.10;0.10;;;6.40;1.00;226.50;231333.00;;;;5071165;28;20794;-73
2022/03/28 07:08:21;;;;;;;0.10;0.10;;;6.50;1.00;226.50;231333.00;;;;5068462;28;20671;-73
2022/03/28 07:10:50;;;;;;;0.10;0.10;;;6.70;1.00;226.50;231333.00;;;;5067118;28;20186;-72
2022/03/28 07:13:18;;;;;;;0.10;0.10;;;6.80;1.00;226.50;231333.00;;;;5071087;28;20209;-72
2022/03/28 07:15:46;;;;;;;0.10;0.10;;;6.90;99.90;226.50;231333.00;;;;5068981;28;20225;-73
2022/03/28 07:18:19;;;;;;;0.10;0.10;;;7.00;99.90;226.50;231333.00;;;;5069924;28;20885;-73
2022/03/28 07:20:50;;;;;;;0.00;0.00;;;7.10;99.90;226.50;231333.00;;;;5071015;28;20217;-72
2022/03/28 07:23:19;;;;;;;0.10;0.10;;;7.20;99.90;226.50;231333.00;;;;5069879;28;20218;-73
2022/03/28 07:25:47;;;;;;;0.10;0.10;;;7.40;99.90;226.50;231333.00;;;;5071525;28;20652;-73
2022/03/28 07:28:17;;;;;;;0.10;0.10;;;7.50;99.90;226.50;231333.00;;;;5069413;28;20198;-73
2022/03/28 07:30:46;;;;;;;0.00;0.00;;;7.70;99.90;226.50;231333.00;;;;5071235;28;20229;-73
2022/03/28 07:33:14;;;;;;;0.10;0.10;;;7.80;99.90;226.50;231333.00;;;;5071588;28;20212;-73
2022/03/28 07:35:44;;;;;;;0.10;0.10;;;7.90;99.90;226.50;231333.00;;;;5071677;28;20212;-73
2022/03/28 07:38:14;;;;;;;0.10;0.10;;;8.00;99.90;226.50;231333.00;;;;5072017;28;20194;-73
2022/03/28 07:40:45;;;;;;;0.10;0.10;;;8.20;99.90;226.50;231333.00;;;;5072411;28;20197;-73
2022/03/28 07:43:14;;;;;;;0.10;0.10;;;8.30;99.90;226.50;231333.00;;;;5072153;28;20217;-72
2022/03/28 07:45:43;;;;;;;0.10;0.10;;;8.50;99.90;226.50;231333.00;;;;5087215;28;20213;-73
2022/03/28 07:48:11;;;;;;;0.00;0.00;;;8.60;99.90;226.50;231333.00;;;;5071978;28;20277;-72
2022/03/28 07:50:39;;;;;;;0.10;0.10;;;8.70;99.90;226.50;231333.00;;;;5055208;28;20236;-72
2022/03/28 07:53:08;;;;;;;0.10;0.10;;;8.90;99.90;226.50;231333.00;;;;5068547;28;20213;-72
2022/03/28 07:55:37;;;;;;;0.10;0.10;;;9.00;99.90;226.50;231333.00;;;;5072155;28;20227;-72
2022/03/28 07:58:06;;;;;;;0.10;0.10;;;9.20;99.90;226.50;231333.00;;;;5071140;28;20264;-72
2022/03/28 08:00:34;;;;;;;0.10;0.10;;;9.30;99.90;226.50;231333.00;;;;5071905;28;20197;-73
2022/03/28 08:03:03;;;;;;;0.10;0.10;;;9.50;99.90;226.50;231333.00;;;;5072381;28;20697;-72
2022/03/28 08:05:32;;;;;;;0.10;0.10;;;9.60;99.90;226.50;231333.00;;;;5072511;28;20263;-73
2022/03/28 08:07:59;;;;;;;0.10;0.10;;;9.70;99.90;226.50;231333.00;;;;5072260;28;20255;-73
2022/03/28 08:10:29;;;;;;;0.10;0.10;;;9.80;99.90;226.50;231333.00;;;;5063485;28;20303;-75
2022/03/28 08:12:58;;;;;;;0.08;0.08;;;10.00;99.90;226.50;231333.00;;;;5070930;28;20225;-75
2022/03/28 08:15:26;;;;;;;0.10;0.10;;;10.10;58.10;226.50;231333.00;;;;5058416;28;20202;-76
2022/03/28 08:17:59;;;;;;;0.10;0.10;;;10.30;6.50;226.50;231333.00;;;;5060594;28;20703;-76
2022/03/28 08:20:28;;;;;;;0.10;0.10;;;10.50;1.00;226.50;231333.00;;;;5060299;28;20198;-76
2022/03/28 08:22:59;;;;;;;0.10;0.10;;;10.60;1.00;226.50;231333.00;;;;5058149;28;20264;-75
2022/03/28 08:25:27;;;;;;;0.10;0.10;;;10.80;1.00;226.50;231333.00;;;;5059038;28;20262;-75
2022/03/28 08:27:55;;;;;;;0.10;0.10;;;10.90;1.00;226.50;231333.00;;;;5059875;28;20206;-75
2022/03/28 08:30:24;;;;;;;0.03;0.03;;;11.10;1.00;226.50;231333.00;;;;5063457;28;20217;-75
2022/03/28 08:32:52;;;;;;;0.00;0.00;;;11.20;1.00;226.50;231333.00;;;;5064762;28;20254;-75
2022/03/28 08:35:20;;;;;;;0.10;0.10;;;11.30;1.00;226.50;231333.00;;;;5065480;28;20201;-75
2022/03/28 08:37:48;;;;;;;0.10;0.10;;;11.40;1.00;226.50;231333.00;;;;5064627;28;20217;-76
2022/03/28 08:40:18;;;;;;;0.00;0.00;;;11.50;1.00;226.50;231333.00;;;;5063327;28;20206;-75
2022/03/28 08:42:47;;;;;;;0.10;0.10;;;11.70;1.00;226.50;231333.00;;;;5064683;28;20287;-73
2022/03/28 08:45:16;;;;;;;0.10;0.10;;;11.90;1.00;226.50;231333.00;;;;5063949;28;20198;-73
2022/03/28 08:47:50;;;;;;;0.10;0.10;;;12.10;1.00;226.50;231333.00;;;;5062770;28;20202;-74
2022/03/28 08:50:43;;;;;;;0.10;0.10;;;12.30;1.00;226.50;231333.00;;;;5063343;28;20202;-74
2022/03/28 08:53:13;;;;;;;0.10;0.10;;;12.50;99.90;226.50;231333.00;;;;5063126;28;20212;-74
2022/03/28 08:55:43;;;;;;;0.10;0.10;;;12.60;99.90;226.50;231333.00;;;;5062807;28;20617;-73
2022/03/28 08:58:13;;;;;;;0.10;0.10;;;12.70;99.90;226.50;231333.00;;;;5063520;28;20589;-72
2022/03/28 09:00:42;;;;;;;0.10;0.10;;;12.80;98.30;226.50;231333.00;;;;5063139;28;20541;-72
2022/03/28 09:03:12;;;;;;;0.10;0.10;;;13.00;1.00;226.50;231333.00;;;;5062537;28;20300;-72
2022/03/28 09:05:42;;;;;;;0.10;0.10;;;13.20;1.00;226.50;231333.00;;;;5062254;28;20924;-72
2022/03/28 09:08:10;;;;;;;0.10;0.10;;;13.40;1.00;226.50;231333.00;;;;5063444;28;20223;-72
2022/03/28 09:10:47;;;;;;;0.10;0.10;;;13.60;1.00;226.50;231333.00;;;;5063270;28;20248;-72
2022/03/28 09:13:17;;;;;;;0.00;0.00;;;13.80;99.90;226.50;231333.00;;;;5063955;28;20243;-72
2022/03/28 09:15:49;;;;;;;0.00;0.00;;;13.90;99.90;226.50;231333.00;;;;5063186;28;20678;-73
2022/03/28 09:18:25;;;;;;;0.10;0.10;;;14.00;15.00;226.50;231333.00;;;;5063461;28;20703;-73
2022/03/28 09:20:58;;;;;;;0.00;0.00;;;14.10;1.00;226.50;231333.00;;;;5063256;28;20666;-72
2022/03/28 09:23:36;;;;;;;0.10;0.10;;;14.10;1.00;226.50;231333.00;;;;5061833;28;20240;-73
2022/03/28 09:26:16;;;;;;;0.10;0.10;;;14.30;1.00;226.50;231333.00;;;;5063032;28;20214;-72
2022/03/28 09:28:48;;;;;;;0.10;0.10;;;14.30;99.90;226.50;231333.00;;;;5063245;28;20255;-72
2022/03/28 09:31:26;;;;;;;0.10;0.10;;;14.50;1.00;226.50;231333.00;;;;5063596;28;20615;-72
2022/03/28 09:34:11;;;;;;;0.10;0.10;;;14.70;1.00;226.50;231333.00;;;;5062818;28;20205;-72
2022/03/28 09:36:49;;;;;;;0.00;0.00;;;14.80;1.00;226.50;231333.00;;;;5062798;28;20690;-72
2022/03/28 09:39:21;;;;;;;0.10;0.10;;;15.00;99.90;226.50;231333.00;;;;5062590;28;20658;-72
2022/03/28 09:42:02;;;;;;;0.10;0.10;;;15.30;1.00;226.50;231333.00;;;;5061900;28;20982;-72
2022/03/28 09:44:36;;;;;;;0.10;0.10;;;15.50;92.60;226.50;231333.00;;;;5061411;28;20198;-72
2022/03/28 09:47:08;;;;;;;0.03;0.03;;;15.40;1.00;226.50;231333.00;;;;5062476;28;20674;-72
2022/03/28 09:49:38;;;;;;;0.08;0.08;;;15.50;1.00;226.50;231333.00;;;;5061242;28;20194;-72
2022/03/28 09:52:10;;;;;;;0.00;0.00;;;15.60;1.00;226.50;231333.00;;;;5061733;28;20216;-72
2022/03/28 09:54:51;;;;;;;0.00;0.00;;;15.70;1.00;226.50;231333.00;;;;5060954;28;20243;-72
2022/03/28 09:57:23;;;;;;;0.10;0.10;;;15.70;1.00;226.50;231333.00;;;;5060805;28;20212;-72
2022/03/28 09:59:53;;;;;;;0.00;0.00;;;15.70;1.00;226.50;231333.00;;;;5062215;28;20190;-72
2022/03/28 10:02:24;;;;;;;0.00;0.00;;;15.80;1.00;226.50;231333.00;;;;5061429;28;20218;-72
2022/03/28 10:04:57;;;;;;;0.00;0.00;;;16.00;99.90;226.50;231333.00;;;;5061328;28;20202;-72
2022/03/28 10:07:25;;;;;;;0.00;0.00;;;15.90;99.90;226.50;231333.00;;;;5062892;28;20305;-72
2022/03/28 10:09:54;;;;;;;0.10;0.10;;;15.90;99.90;226.50;231333.00;;;;5061863;28;20191;-73
2022/03/28 10:12:24;;;;;;;0.00;0.00;;;16.00;99.90;226.50;231333.00;;;;5061787;28;20219;-72
2022/03/28 10:14:58;;;;;;;0.00;0.00;;;16.00;99.90;226.50;231333.00;;;;5062593;28;20198;-72
2022/03/28 10:17:29;;;;;;;0.00;0.00;;;16.00;22.30;226.50;231333.00;;;;5061372;28;20209;-73
2022/03/28 10:19:59;;;;;;;0.10;0.10;;;16.20;1.00;226.50;231333.00;;;;5061114;28;20194;-72
2022/03/28 10:22:53;;;;;;;0.05;0.05;;;16.30;1.00;226.50;231333.00;;;;5061627;28;20228;-73
2022/03/28 10:25:25;;;;;;;0.00;0.00;;;16.40;1.00;226.50;231333.00;;;;5061855;28;20268;-72
2022/03/28 10:27:54;;;;;;;0.00;0.00;;;16.50;1.00;226.50;231333.00;;;;5061851;28;20740;-72
2022/03/28 10:30:28;;;;;;;0.00;0.00;;;16.70;1.00;226.50;231333.00;;;;5064138;28;20189;-73
2022/03/28 10:33:10;;;;;;;0.00;0.00;;;16.70;1.00;226.50;231333.00;;;;5079838;28;20214;-73
2022/03/28 10:35:56;;;;;;;0.00;0.00;;;17.00;99.90;226.50;231333.00;;;;5065250;28;20187;-72
2022/03/28 10:38:24;;;;;;;0.00;0.00;;;17.10;99.90;226.50;231333.00;;;;5063228;28;20233;-72
2022/03/28 10:40:58;;;;;;;0.00;0.00;;;17.10;99.90;226.50;231333.00;;;;5077221;28;20198;-72
2022/03/28 10:43:28;;;;;;;0.00;0.00;;;17.40;99.90;226.50;231333.00;;;;5064886;28;20235;-72
2022/03/28 10:45:58;;;;;;;0.10;0.10;;;17.70;99.90;226.50;231333.00;;;;5064033;28;20565;-72
2022/03/28 10:48:40;;;;;;;0.00;0.00;;;18.00;99.90;226.50;231333.00;;;;5063062;28;20202;-71
2022/03/28 10:51:12;;;;;;;0.00;0.00;;;18.20;99.90;226.50;231333.00;;;;5063875;28;20228;-71
2022/03/28 10:53:43;;;;;;;0.00;0.00;;;18.40;99.90;226.50;231333.00;;;;5063543;28;20634;-71
2022/03/28 10:56:17;;;;;;;0.00;0.00;;;18.00;99.90;226.50;231333.00;;;;5061422;28;20194;-71
2022/03/28 10:58:51;;;;;;;0.00;0.00;;;17.90;99.90;226.50;231333.00;;;;5066857;28;20217;-72